Time;durP1;ratioP1;P1;durP2;ratioP2;P2;SDS_P1;SDS_P2;PMS_P1;PMS_P2;Temp;Humidity;BMP_temperature;BMP_pressure;BME280_temperature;BME280_humidity;BME280_pressure;Samples;Min_cycle;Max_cycle;Signal;HPM_P1;HPM_P2
2022/06/14 00:02:59;;;;;;;6.82;2.00;;;;;;;12.56;72.52;102438.47;5074953;28;20428;-36
2022/06/14 00:05:25;;;;;;;6.90;1.97;;;;;;;12.52;72.12;102437.19;5073509;28;20044;-36
2022/06/14 00:07:50;;;;;;;5.20;1.70;;;;;;;12.49;72.66;102431.34;5074642;28;20258;-36
2022/06/14 00:10:15;;;;;;;4.93;1.43;;;;;;;12.45;73.54;102435.53;5074739;28;20309;-36
2022/06/14 00:12:41;;;;;;;4.50;1.60;;;;;;;12.47;73.11;102442.41;5072538;28;20036;-36
2022/06/14 00:15:06;;;;;;;6.13;1.70;;;;;;;12.46;73.17;102448.88;5074440;28;20031;-36
2022/06/14 00:17:32;;;;;;;5.85;1.50;;;;;;;12.43;72.26;102441.13;5074922;28;20032;-36
2022/06/14 00:19:57;;;;;;;8.17;2.00;;;;;;;12.35;73.72;102433.19;5074046;28;20029;-36
2022/06/14 00:22:23;;;;;;;6.97;1.97;;;;;;;12.36;73.62;102427.56;5074813;28;20719;-36
2022/06/14 00:24:48;;;;;;;8.48;2.15;;;;;;;12.41;73.65;102437.81;5074230;28;20072;-36
2022/06/14 00:27:13;;;;;;;6.90;1.97;;;;;;;12.35;73.63;102416.94;5074816;28;20039;-36
2022/06/14 00:29:39;;;;;;;7.47;1.97;;;;;;;12.31;73.93;102448.22;5074455;28;20025;-36
2022/06/14 00:32:04;;;;;;;4.87;1.67;;;;;;;12.17;74.67;102427.50;5074716;28;20028;-36
2022/06/14 00:34:30;;;;;;;4.38;1.90;;;;;;;12.24;74.68;102442.75;5074808;28;20033;-36
2022/06/14 00:36:56;;;;;;;7.10;2.08;;;;;;;12.21;75.00;102442.34;5074242;28;20036;-36
2022/06/14 00:39:21;;;;;;;7.18;1.90;;;;;;;12.20;75.41;102440.63;5073879;28;20036;-36
2022/06/14 00:41:51;;;;;;;9.98;2.10;;;;;;;12.16;75.24;102440.22;5073948;28;20025;-36
2022/06/14 00:44:20;;;;;;;7.28;1.98;;;;;;;12.06;75.24;102428.91;5072733;28;20040;-36
2022/06/14 00:46:52;;;;;;;5.85;1.75;;;;;;;12.12;75.35;102438.94;5074099;28;20036;-36
2022/06/14 00:49:23;;;;;;;5.47;1.88;;;;;;;12.09;76.25;102448.31;5073687;28;20047;-36
2022/06/14 00:51:59;;;;;;;5.22;1.70;;;;;;;12.00;76.19;102440.56;5074461;28;20033;-36
2022/06/14 00:54:32;;;;;;;7.28;1.63;;;;;;;12.04;76.38;102442.66;5073400;28;20029;-36
2022/06/14 00:57:13;;;;;;;8.02;2.22;;;;;;;11.98;75.88;102439.94;5074685;28;20131;-36
2022/06/14 00:59:44;;;;;;;5.47;1.80;;;;;;;11.94;76.83;102436.78;5073869;28;20060;-36
2022/06/14 01:02:31;;;;;;;5.40;1.65;;;;;;;11.99;76.15;102428.03;5073837;28;20032;-36
2022/06/14 01:05:01;;;;;;;6.25;1.98;;;;;;;11.90;76.83;102435.50;5074044;28;20034;-36
2022/06/14 01:07:32;;;;;;;4.30;1.48;;;;;;;11.72;77.21;102422.47;5073160;28;20044;-36
2022/06/14 01:10:06;;;;;;;6.07;1.67;;;;;;;11.75;77.24;102421.22;5073750;28;20024;-36
2022/06/14 01:12:36;;;;;;;6.82;1.85;;;;;;;11.57;77.92;102419.06;5073885;28;20078;-36
2022/06/14 01:15:33;;;;;;;6.22;2.03;;;;;;;11.44;79.22;102408.13;5074081;28;20032;-36
2022/06/14 01:18:05;;;;;;;6.38;1.90;;;;;;;11.49;78.57;102421.91;5072720;28;20510;-36
2022/06/14 01:20:31;;;;;;;5.43;1.85;;;;;;;11.45;78.82;102426.03;5073425;28;20240;-36
2022/06/14 01:22:57;;;;;;;;;;;;;;;11.68;75.82;102425.78;5074461;28;20029;-36
2022/06/14 01:25:26;;;;;;;5.88;1.73;;;;;;;11.44;79.11;102419.78;5072944;28;19970;-36
2022/06/14 01:27:53;;;;;;;5.07;1.95;;;;;;;11.55;79.09;102424.66;5073497;28;20032;-36
2022/06/14 01:30:28;;;;;;;4.90;1.85;;;;;;;11.48;79.38;102425.66;5073090;28;20028;-36
2022/06/14 01:33:00;;;;;;;5.18;1.70;;;;;;;11.39;78.82;102406.00;5073475;28;20027;-36
2022/06/14 01:35:29;;;;;;;6.47;1.98;;;;;;;11.51;78.98;102422.53;5073291;28;20082;-36
2022/06/14 01:37:57;;;;;;;6.43;2.08;;;;;;;11.44;79.73;102419.78;5073117;28;20033;-36
2022/06/14 01:40:54;;;;;;;8.02;2.17;;;;;;;11.43;79.08;102406.47;5073018;28;20033;-36
2022/06/14 01:43:42;;;;;;;6.25;1.80;;;;;;;11.44;79.52;102411.66;5072945;28;20032;-36
2022/06/14 01:46:13;;;;;;;6.82;2.35;;;;;;;11.33;79.81;102417.63;5069744;28;20043;-36
2022/06/14 01:48:53;;;;;;;6.63;1.83;;;;;;;11.28;80.00;102399.28;5072638;28;20106;-36
2022/06/14 01:51:54;;;;;;;4.60;1.73;;;;;;;11.35;79.71;102404.72;5073383;28;20071;-36
2022/06/14 01:54:36;;;;;;;5.18;1.67;;;;;;;11.28;80.15;102406.56;5073283;28;20376;-36
2022/06/14 01:57:12;;;;;;;5.63;1.73;;;;;;;11.22;79.71;102408.16;5073097;28;20050;-36
2022/06/14 02:00:00;;;;;;;5.68;2.00;;;;;;;11.14;80.13;102407.50;5073341;28;20036;-36
2022/06/14 02:02:38;;;;;;;5.22;1.80;;;;;;;10.99;80.34;102400.31;5073075;28;20029;-36
2022/06/14 02:05:25;;;;;;;5.25;2.03;;;;;;;10.96;80.84;102410.69;5072502;28;20021;-36
2022/06/14 02:08:02;;;;;;;13.02;2.45;;;;;;;10.98;80.25;102412.16;5072758;28;20036;-36
2022/06/14 02:10:56;;;;;;;5.68;2.15;;;;;;;10.99;80.64;102403.00;5072709;28;20036;-36
2022/06/14 02:13:24;;;;;;;4.25;2.22;;;;;;;11.00;81.09;102401.13;5073514;28;20121;-36
2022/06/14 02:16:04;;;;;;;7.32;2.28;;;;;;;11.02;80.80;102401.75;5073330;28;20124;-36
2022/06/14 02:18:42;;;;;;;4.80;1.67;;;;;;;10.99;80.88;102394.91;5073132;28;20365;-36
2022/06/14 02:21:16;;;;;;;4.78;1.80;;;;;;;10.98;80.54;102395.94;5073411;28;20048;-36
2022/06/14 02:24:14;;;;;;;5.05;2.03;;;;;;;11.01;80.44;102403.63;5072564;28;20035;-36
2022/06/14 02:26:46;;;;;;;5.05;1.73;;;;;;;11.02;80.58;102399.91;5072618;28;20068;-36
2022/06/14 02:29:21;;;;;;;4.80;2.10;;;;;;;10.86;80.84;102383.13;5072891;28;20031;-36
2022/06/14 02:31:55;;;;;;;4.55;1.75;;;;;;;10.86;80.94;102389.38;5075159;28;20028;-36
2022/06/14 02:34:44;;;;;;;4.25;1.90;;;;;;;10.98;80.20;102389.66;5076026;28;20418;-36
2022/06/14 02:37:20;;;;;;;5.85;2.05;;;;;;;10.91;81.23;102391.47;5076675;28;20377;-36
2022/06/14 02:39:54;;;;;;;6.88;2.03;;;;;;;10.86;80.88;102388.53;5076329;28;20039;-36
2022/06/14 02:42:32;;;;;;;4.28;1.60;;;;;;;10.86;80.60;102383.13;5076432;28;20028;-36
2022/06/14 02:45:03;;;;;;;4.22;1.75;;;;;;;10.71;80.73;102378.63;5076415;28;20032;-36
2022/06/14 02:47:53;;;;;;;7.07;1.90;;;;;;;10.60;81.44;102370.19;5076352;28;20036;-36
2022/06/14 02:50:26;;;;;;;4.47;1.90;;;;;;;10.66;82.19;102382.94;5075832;28;20032;-36
2022/06/14 02:52:57;;;;;;;3.42;1.65;;;;;;;10.60;81.92;102371.03;5076540;28;20123;-36
2022/06/14 02:55:36;;;;;;;6.72;1.88;;;;;;;10.53;81.72;102379.06;5075943;28;20037;-36
2022/06/14 02:58:23;;;;;;;4.38;1.60;;;;;;;10.58;81.91;102373.06;5076171;28;20036;-36
2022/06/14 03:00:51;;;;;;;4.28;1.50;;;;;;;10.56;81.87;102381.41;5075904;28;20029;-36
2022/06/14 03:03:24;;;;;;;5.22;1.73;;;;;;;10.44;81.72;102377.53;5076080;28;20043;-36
2022/06/14 03:06:18;;;;;;;4.28;2.15;;;;;;;10.52;82.13;102387.38;5076509;28;20024;-36
2022/06/14 03:08:54;;;;;;;5.10;1.95;;;;;;;10.50;82.52;102378.63;5073989;28;20465;-36
2022/06/14 03:11:33;;;;;;;6.35;1.90;;;;;;;10.51;81.96;102380.31;5075712;28;20099;-36
2022/06/14 03:14:33;;;;;;;6.20;1.83;;;;;;;10.58;81.85;102383.91;5075656;28;20419;-36
2022/06/14 03:17:04;;;;;;;4.05;1.77;;;;;;;10.55;82.38;102382.44;5075476;28;20021;-36
2022/06/14 03:20:09;;;;;;;3.92;1.92;;;;;;;10.57;81.37;102379.53;5075444;28;20035;-36
2022/06/14 03:22:43;;;;;;;4.55;1.73;;;;;;;10.47;82.03;102389.81;5076049;28;20059;-36
2022/06/14 03:25:17;;;;;;;5.05;2.00;;;;;;;10.40;81.90;102378.97;5075632;28;20047;-36
2022/06/14 03:28:03;;;;;;;3.95;1.67;;;;;;;10.49;81.83;102388.63;5075470;28;20469;-36
2022/06/14 03:30:39;;;;;;;4.18;2.03;;;;;;;10.32;82.99;102366.38;5075266;28;20066;-36
2022/06/14 03:33:14;;;;;;;4.80;2.05;;;;;;;10.44;82.25;102384.78;5074974;28;20024;-36
2022/06/14 03:35:44;;;;;;;5.65;2.13;;;;;;;10.42;82.59;102381.47;5075909;28;20021;-36
2022/06/14 03:38:17;;;;;;;4.68;2.05;;;;;;;10.25;83.30;102370.06;5074891;28;20108;-36
2022/06/14 03:40:44;;;;;;;5.32;1.98;;;;;;;10.40;83.18;102383.53;5074886;28;20477;-36
2022/06/14 03:43:10;;;;;;;4.35;2.00;;;;;;;10.36;83.15;102388.47;5075012;28;20036;-36
2022/06/14 03:45:51;;;;;;;7.65;1.95;;;;;;;10.27;82.73;102373.41;5075484;28;20081;-36
2022/06/14 03:48:17;;;;;;;5.97;1.77;;;;;;;10.32;83.27;102379.06;5075695;28;20024;-36
2022/06/14 03:50:58;;;;;;;4.07;2.00;;;;;;;10.39;83.25;102384.53;5075471;28;20469;-36
2022/06/14 03:53:38;;;;;;;6.45;1.92;;;;;;;10.40;83.42;102384.38;5074666;28;20032;-36
2022/06/14 03:56:44;;;;;;;4.45;1.90;;;;;;;10.42;83.03;102376.06;5074872;28;20044;-35
2022/06/14 03:59:27;;;;;;;6.20;1.77;;;;;;;10.30;83.20;102379.28;5074994;28;20368;-36
2022/06/14 04:01:57;;;;;;;4.13;1.90;;;;;;;10.27;82.88;102384.22;5074928;28;20025;-36
2022/06/14 04:04:41;;;;;;;5.07;2.00;;;;;;;10.25;83.59;102383.59;5073490;28;20040;-36
2022/06/14 04:07:21;;;;;;;4.18;2.10;;;;;;;10.15;83.63;102391.09;5074629;28;20024;-35
2022/06/14 04:10:13;;;;;;;7.43;2.25;;;;;;;10.23;83.44;102388.28;5074536;28;20111;-35
2022/06/14 04:13:06;;;;;;;6.97;2.38;;;;;;;10.14;84.18;102373.22;5074908;28;20032;-34
2022/06/14 04:15:42;;;;;;;3.30;1.90;;;;;;;10.22;83.99;102392.03;5074722;28;20030;-35
2022/06/14 04:18:38;;;;;;;4.05;2.13;;;;;;;10.25;84.65;102397.94;5074769;28;20037;-35
2022/06/14 04:21:44;;;;;;;5.60;2.22;;;;;;;10.28;84.23;102396.69;5074371;28;20329;-37
2022/06/14 04:24:37;;;;;;;6.05;2.05;;;;;;;10.14;84.22;102373.22;5075052;28;20099;-35
2022/06/14 04:27:08;;;;;;;5.85;2.53;;;;;;;10.32;84.04;102398.81;5073223;28;20064;-35
2022/06/14 04:29:43;;;;;;;7.80;2.47;;;;;;;10.43;83.76;102405.59;5074729;28;20082;-35
2022/06/14 04:32:16;;;;;;;8.50;2.58;;;;;;;10.45;84.34;102402.72;5074370;28;20035;-35
2022/06/14 04:34:50;;;;;;;6.32;2.83;;;;;;;10.49;84.51;102398.56;5074104;28;20036;-35
2022/06/14 04:37:27;;;;;;;5.70;2.45;;;;;;;10.55;84.96;102393.25;5074956;28;20330;-35
2022/06/14 04:40:04;;;;;;;7.35;2.55;;;;;;;10.65;84.12;102397.50;5074247;28;20035;-35
2022/06/14 04:42:45;;;;;;;9.75;2.58;;;;;;;10.70;84.49;102403.16;5074187;28;20417;-35
2022/06/14 04:45:41;;;;;;;4.90;2.58;;;;;;;10.67;85.00;102384.59;5074530;28;20070;-35
2022/06/14 04:48:18;;;;;;;6.53;2.40;;;;;;;10.82;84.07;102404.31;5051637;28;20119;-35
2022/06/14 04:50:53;;;;;;;5.00;2.38;;;;;;;10.99;84.83;102405.72;5051992;28;20083;-38
2022/06/14 04:53:23;;;;;;;6.80;2.65;;;;;;;10.99;85.36;102394.06;5051314;28;20040;-35
2022/06/14 04:55:59;;;;;;;6.38;2.47;;;;;;;11.24;83.85;102400.69;5051580;28;20056;-35
2022/06/14 04:58:46;;;;;;;6.37;2.70;;;;;;;11.21;83.50;102386.72;5051659;28;20220;-35
2022/06/14 05:01:15;;;;;;;;;;;;;;;11.49;82.05;102402.94;5051876;28;20260;-35
2022/06/14 05:03:54;;;;;;;6.10;2.90;;;;;;;11.44;83.13;102381.88;5051420;28;20371;-35
2022/06/14 05:06:28;;;;;;;6.90;3.00;;;;;;;11.56;83.51;102399.22;5051788;28;20076;-35
2022/06/14 05:09:00;;;;;;;7.13;2.95;;;;;;;11.67;84.08;102389.72;5051383;28;20455;-35
2022/06/14 05:11:34;;;;;;;10.20;3.35;;;;;;;11.61;83.32;102368.81;5051168;28;20049;-35
2022/06/14 05:14:08;;;;;;;9.10;2.85;;;;;;;11.91;83.12;102399.25;5050955;28;20104;-35
2022/06/14 05:16:56;;;;;;;14.55;3.25;;;;;;;12.04;82.60;102410.13;5051074;28;20115;-35
2022/06/14 05:19:29;;;;;;;6.57;3.17;;;;;;;12.11;82.57;102407.47;5051069;28;20045;-36
2022/06/14 05:22:14;;;;;;;6.22;2.80;;;;;;;12.31;82.53;102404.81;5051193;28;20402;-36
2022/06/14 05:24:40;;;;;;;11.35;2.95;;;;;;;12.35;81.09;102406.06;5057923;28;20112;-35
2022/06/14 05:27:27;;;;;;;5.97;2.80;;;;;;;12.47;81.26;102401.69;5073957;28;20498;-36
2022/06/14 05:30:13;;;;;;;8.00;3.20;;;;;;;12.51;81.14;102394.81;5073159;28;20024;-35
2022/06/14 05:32:39;;;;;;;8.80;3.00;;;;;;;12.71;79.92;102404.88;5073732;28;20506;-35
2022/06/14 05:35:27;;;;;;;9.07;2.93;;;;;;;12.77;79.72;102412.19;5073396;28;20036;-35
2022/06/14 05:37:56;;;;;;;10.55;3.83;;;;;;;12.83;80.12;102414.06;5050753;28;20036;-35
2022/06/14 05:40:25;;;;;;;11.57;3.67;;;;;;;12.85;79.07;102415.53;5050882;28;20032;-35
2022/06/14 05:43:05;;;;;;;10.20;3.67;;;;;;;12.76;78.95;102414.06;5051062;28;20059;-35
2022/06/14 05:45:34;;;;;;;11.70;3.60;;;;;;;12.73;78.40;102408.22;5050680;28;20033;-35
2022/06/14 05:48:05;;;;;;;10.73;3.88;;;;;;;12.81;78.98;102405.31;5051025;28;20029;-35
2022/06/14 05:50:43;;;;;;;11.95;4.03;;;;;;;12.99;79.16;102413.66;5050986;28;20025;-35
2022/06/14 05:53:19;;;;;;;7.40;3.22;;;;;;;13.03;78.51;102412.22;5050563;28;20059;-35
2022/06/14 05:55:49;;;;;;;;;;;;;;;13.23;78.17;102408.69;5050887;28;20056;-36
2022/06/14 05:58:33;;;;;;;7.93;2.83;;;;;;;13.34;78.67;102411.59;5051054;28;20396;-36
2022/06/14 06:01:06;;;;;;;14.73;4.35;;;;;;;13.31;77.70;102417.44;5050586;28;20041;-36
2022/06/14 06:03:41;;;;;;;8.63;3.60;;;;;;;13.28;75.15;102404.28;5050675;28;20397;-36
2022/06/14 06:06:13;;;;;;;9.32;3.72;;;;;;;13.35;76.51;102396.09;5054037;28;20033;-36
2022/06/14 06:08:42;;;;;;;7.63;3.75;;;;;;;13.49;75.46;102407.78;5054949;28;20077;-36
2022/06/14 06:11:17;;;;;;;10.13;4.00;;;;;;;13.59;76.82;102414.44;5054684;28;20036;-36
2022/06/14 06:13:48;;;;;;;6.90;4.03;;;;;;;13.70;77.23;102420.28;5055315;28;20040;-36
2022/06/14 06:16:24;;;;;;;7.40;3.67;;;;;;;13.77;74.11;102419.22;5077449;28;20309;-36
2022/06/14 06:18:58;;;;;;;6.63;2.75;;;;;;;13.90;75.33;102418.31;5076782;28;20028;-36
2022/06/14 06:21:50;;;;;;;6.13;3.30;;;;;;;13.89;73.02;102427.53;5077001;28;20032;-36
2022/06/14 06:24:41;;;;;;;9.00;3.03;;;;;;;13.94;73.13;102419.56;5054631;28;20041;-36
2022/06/14 06:27:11;;;;;;;8.43;3.13;;;;;;;13.91;73.42;102428.19;4994986;28;20124;-36
2022/06/14 06:29:57;;;;;;;5.25;2.78;;;;;;;14.09;73.69;102413.84;4994995;28;20480;-36
2022/06/14 06:32:26;;;;;;;7.57;3.03;;;;;;;14.12;70.23;102417.00;4995471;28;20046;-36
2022/06/14 06:34:51;;;;;;;5.50;2.28;;;;;;;14.22;69.80;102413.81;4994830;28;20042;-36
2022/06/14 06:37:25;;;;;;;6.75;2.72;;;;;;;14.24;69.00;102422.56;4995197;28;20053;-36
2022/06/14 06:40:13;;;;;;;5.28;2.47;;;;;;;14.26;69.37;102404.16;4994913;28;20033;-36
2022/06/14 06:42:45;;;;;;;4.50;2.25;;;;;;;14.45;70.85;102415.16;4995115;28;20422;-36
2022/06/14 06:45:22;;;;;;;6.85;2.53;;;;;;;14.54;69.79;102411.13;4994726;28;20049;-36
2022/06/14 06:47:53;;;;;;;6.15;1.98;;;;;;;14.68;67.81;102418.97;4994447;28;20127;-36
2022/06/14 06:50:21;;;;;;;6.45;2.03;;;;;;;14.66;65.79;102423.84;4994630;28;20069;-36
2022/06/14 06:53:21;;;;;;;4.32;1.83;;;;;;;14.73;68.89;102426.50;4994884;28;20410;-36
2022/06/14 06:56:06;;;;;;;6.10;2.20;;;;;;;14.78;66.69;102417.66;4994581;28;20121;-36
2022/06/14 06:58:37;;;;;;;6.72;2.15;;;;;;;14.73;64.72;102425.66;4994938;28;20336;-36
2022/06/14 07:01:31;;;;;;;4.68;1.95;;;;;;;14.68;64.79;102427.16;4994260;28;20455;-36
2022/06/14 07:04:11;;;;;;;5.22;1.90;;;;;;;14.77;66.81;102416.00;5036777;28;20040;-36
2022/06/14 07:06:44;;;;;;;5.50;1.90;;;;;;;14.82;67.38;102408.84;5075955;28;20146;-36
2022/06/14 07:09:12;;;;;;;5.78;1.65;;;;;;;15.00;65.17;102418.97;5075756;28;20047;-36
2022/06/14 07:12:12;;;;;;;6.68;2.05;;;;;;;15.12;65.23;102421.78;5074651;28;20032;-36
2022/06/14 07:15:22;;;;;;;6.55;1.90;;;;;;;15.14;62.87;102422.41;5053722;28;20029;-36
2022/06/14 07:17:55;;;;;;;6.25;2.03;;;;;;;15.00;63.18;102410.81;4993733;28;20420;-36
2022/06/14 07:21:04;;;;;;;6.20;1.90;;;;;;;14.88;61.72;102423.44;4994160;28;20038;-36
2022/06/14 07:23:39;;;;;;;5.85;2.20;;;;;;;15.06;64.69;102426.25;4955486;28;20054;-36
2022/06/14 07:26:23;;;;;;;6.75;2.05;;;;;;;15.10;63.63;102424.75;4955285;28;20492;-36
2022/06/14 07:29:20;;;;;;;4.55;1.73;;;;;;;15.11;64.42;102420.97;4955421;29;20046;-36
2022/06/14 07:31:48;;;;;;;;;;;;;;;15.30;64.31;102418.28;4955558;29;20118;-36
2022/06/14 07:34:15;;;;;;;8.32;2.40;;;;;;;15.32;61.91;102413.44;4954891;28;19915;-36
2022/06/14 07:36:46;;;;;;;6.03;1.80;;;;;;;15.47;60.89;102422.13;4954869;28;20043;-36
2022/06/14 07:39:27;;;;;;;6.60;2.30;;;;;;;15.45;59.19;102418.75;4955179;28;20056;-36
2022/06/14 07:42:04;;;;;;;4.65;1.77;;;;;;;15.39;59.49;102415.06;4955257;28;20452;-36
2022/06/14 07:44:37;;;;;;;4.93;1.80;;;;;;;15.48;60.72;102417.50;4955240;29;20047;-36
2022/06/14 07:47:16;;;;;;;4.50;1.98;;;;;;;15.50;58.83;102416.19;4955502;29;20591;-36
2022/06/14 07:49:47;;;;;;;5.35;1.75;;;;;;;15.57;59.28;102414.25;4985895;28;20113;-36
2022/06/14 07:52:20;;;;;;;5.63;2.13;;;;;;;15.56;57.28;102414.44;5013362;28;20530;-36
2022/06/14 07:54:50;;;;;;;4.30;1.67;;;;;;;15.66;58.41;102410.19;5012859;28;20049;-36
2022/06/14 07:57:29;;;;;;;4.38;1.50;;;;;;;15.77;58.50;102405.03;5038269;28;20114;-36
2022/06/14 08:03:15;;;;;;;4.40;1.50;;;;;;;16.00;57.48;102413.34;5075036;28;20451;-35
2022/06/14 08:05:46;;;;;;;5.20;1.60;;;;;;;15.90;55.14;102416.59;5074983;28;20095;-36
2022/06/14 08:08:17;;;;;;;5.07;1.60;;;;;;;15.95;56.30;102402.28;5074623;28;20029;-36
2022/06/14 08:10:47;;;;;;;4.97;1.92;;;;;;;16.00;55.07;102413.34;5074573;28;20457;-36
2022/06/14 08:13:25;;;;;;;4.35;1.50;;;;;;;16.16;56.68;102404.53;5074791;28;20122;-35
2022/06/14 08:15:55;;;;;;;5.68;1.80;;;;;;;16.08;55.03;102404.00;5074589;28;20036;-35
2022/06/14 08:18:40;;;;;;;4.38;1.90;;;;;;;16.05;54.97;102397.09;5074139;28;20035;-36
2022/06/14 08:21:12;;;;;;;6.05;1.83;;;;;;;16.20;57.17;102389.38;5074987;28;20112;-35
2022/06/14 08:23:43;;;;;;;5.75;2.03;;;;;;;16.43;57.11;102401.44;5074614;28;20020;-36
2022/06/14 08:26:35;;;;;;;4.22;1.60;;;;;;;16.60;56.27;102398.88;5074303;28;20078;-35
2022/06/14 08:29:24;;;;;;;4.38;1.55;;;;;;;16.80;55.67;102393.13;5073284;28;20425;-36
2022/06/14 08:31:59;;;;;;;6.60;2.05;;;;;;;16.93;54.71;102388.28;5074727;28;20461;-36
2022/06/14 08:34:33;;;;;;;4.13;1.60;;;;;;;17.17;55.00;102389.09;5074149;28;20028;-35
2022/06/14 08:37:04;;;;;;;3.65;1.75;;;;;;;17.31;53.59;102386.97;5074239;28;20473;-35
2022/06/14 08:39:47;;;;;;;4.40;1.48;;;;;;;17.34;54.37;102380.22;5073940;28;20059;-36
2022/06/14 08:42:48;;;;;;;3.60;1.65;;;;;;;17.42;54.13;102385.28;5074958;28;20377;-36
2022/06/14 08:45:38;;;;;;;4.90;2.03;;;;;;;16.96;52.11;102374.13;5051936;28;20037;-36
2022/06/14 08:48:18;;;;;;;6.70;2.15;;;;;;;17.28;53.10;102387.47;5051522;28;20049;-35
2022/06/14 08:51:37;;;;;;;3.55;1.42;;;;;;;17.51;53.89;102383.84;5052034;28;20413;-36
2022/06/14 08:54:20;;;;;;;;;;;;;;;17.75;53.01;102382.78;4993191;28;20369;-36
2022/06/14 08:56:48;;;;;;;3.78;1.48;;;;;;;17.77;52.73;102381.72;4992312;28;19988;-36
2022/06/14 08:59:43;;;;;;;6.72;2.20;;;;;;;17.91;52.38;102375.72;4991623;28;20026;-36
2022/06/14 09:02:27;;;;;;;7.75;1.73;;;;;;;18.03;52.06;102364.72;4991487;28;20042;-36
2022/06/14 09:05:04;;;;;;;3.42;1.48;;;;;;;18.24;51.46;102382.38;4983350;28;20031;-36
2022/06/14 09:07:55;;;;;;;5.82;2.00;;;;;;;18.18;51.74;102378.69;4972609;28;20469;-36
2022/06/14 09:10:59;;;;;;;5.80;1.80;;;;;;;18.37;52.18;102378.50;4972501;28;20125;-35
2022/06/14 09:13:39;;;;;;;6.60;1.95;;;;;;;18.51;52.31;102374.38;4972870;28;20179;-36
2022/06/14 09:16:20;;;;;;;4.47;1.50;;;;;;;18.34;50.22;102378.97;4972521;28;20527;-36
2022/06/14 09:18:54;;;;;;;3.72;1.60;;;;;;;18.62;51.62;102378.13;4972514;28;20070;-36
2022/06/14 09:21:31;;;;;;;4.53;1.80;;;;;;;18.45;50.51;102373.47;4958452;28;20048;-35
2022/06/14 09:24:36;;;;;;;3.75;1.60;;;;;;;18.52;51.30;102376.03;4952946;29;20499;-35
2022/06/14 09:27:19;;;;;;;5.03;1.90;;;;;;;18.83;49.44;102373.84;4952426;29;20075;-35
2022/06/14 09:30:09;;;;;;;8.65;2.58;;;;;;;18.72;49.02;102357.22;4993224;28;20079;-36
2022/06/14 09:35:55;;;;;;;6.28;2.30;;;;;;;18.47;49.92;102373.22;5011174;28;20478;-36
2022/06/14 09:38:57;;;;;;;5.25;2.00;;;;;;;18.78;50.06;102374.59;5022550;28;20300;-36
2022/06/14 09:41:51;;;;;;;5.13;2.15;;;;;;;18.81;50.09;102367.78;5053317;28;20028;-36
2022/06/14 09:44:19;;;;;;;8.05;2.13;;;;;;;18.66;49.67;102362.84;5053346;28;20032;-36
2022/06/14 09:46:57;;;;;;;4.40;1.77;;;;;;;18.92;49.57;102351.25;5053435;28;20025;-36
2022/06/14 09:49:49;;;;;;;5.28;1.90;;;;;;;19.27;48.84;102355.59;5053562;28;20029;-36
2022/06/14 09:52:46;;;;;;;6.97;2.47;;;;;;;19.37;50.03;102343.94;5053208;28;20029;-36
2022/06/14 09:55:42;;;;;;;5.07;2.08;;;;;;;19.63;49.82;102350.63;5050362;28;20437;-36
2022/06/14 09:58:23;;;;;;;3.80;1.70;;;;;;;19.64;47.09;102341.31;5051039;28;20072;-36
2022/06/14 10:01:06;;;;;;;5.20;2.28;;;;;;;19.69;48.50;102342.19;5050894;28;20170;-36
2022/06/14 10:04:01;;;;;;;4.20;1.95;;;;;;;19.88;48.31;102337.22;5050933;28;20029;-36
2022/06/14 10:06:38;;;;;;;6.63;2.40;;;;;;;19.68;47.45;102332.31;5051056;28;20393;-36
2022/06/14 10:09:36;;;;;;;6.35;2.10;;;;;;;19.50;47.31;102335.34;5050913;28;20032;-36
2022/06/14 10:12:23;;;;;;;5.75;1.70;;;;;;;19.88;48.72;102328.97;5050207;28;20520;-36
2022/06/14 10:14:48;;;;;;;;;;;;;;;20.20;47.39;102331.75;5050714;28;20479;-36
2022/06/14 10:17:19;;;;;;;3.90;1.50;;;;;;;19.97;45.67;102330.19;5050886;28;19913;-36
2022/06/14 10:19:53;;;;;;;3.40;1.33;;;;;;;20.31;46.05;102324.47;5050275;28;20041;-36
2022/06/14 10:22:43;;;;;;;5.15;1.88;;;;;;;19.99;45.86;102319.75;5050479;28;20159;-36
2022/06/14 10:25:15;;;;;;;3.97;1.50;;;;;;;20.15;45.23;102328.97;5050291;28;20461;-36
2022/06/14 10:28:13;;;;;;;6.50;1.95;;;;;;;19.56;44.53;102315.09;5050299;28;20485;-36
2022/06/14 10:30:41;;;;;;;4.38;1.70;;;;;;;19.57;43.88;102322.28;5050249;28;20108;-36
2022/06/14 10:33:16;;;;;;;3.80;1.80;;;;;;;19.97;47.36;102318.38;5052440;28;20045;-36
2022/06/14 10:35:59;;;;;;;2.70;1.52;;;;;;;20.12;46.17;102306.72;5052826;28;20496;-36
2022/06/14 10:38:45;;;;;;;3.78;1.38;;;;;;;20.01;44.58;102305.78;5053335;28;20414;-36
2022/06/14 10:41:44;;;;;;;4.90;1.50;;;;;;;19.89;45.87;102294.13;5052950;28;20033;-36
2022/06/14 10:44:26;;;;;;;4.85;1.70;;;;;;;20.19;46.68;102299.06;5052915;28;20029;-36
2022/06/14 10:47:36;;;;;;;6.15;1.60;;;;;;;20.32;45.67;102294.00;5053226;28;20373;-36
2022/06/14 10:50:33;;;;;;;3.28;1.20;;;;;;;20.07;45.37;102299.25;5030203;28;20073;-36
2022/06/14 10:53:13;;;;;;;4.17;1.73;;;;;;;20.56;43.68;102288.16;5033367;28;20045;-36
2022/06/14 10:56:09;;;;;;;3.80;1.40;;;;;;;20.57;43.08;102278.84;5034165;28;20057;-36
2022/06/14 10:58:41;;;;;;;5.72;1.75;;;;;;;20.12;43.81;102282.81;5033987;28;20060;-37
2022/06/14 11:01:33;;;;;;;5.05;2.10;;;;;;;19.74;44.93;102290.13;5034126;28;20079;-36
2022/06/14 11:04:39;;;;;;;4.60;1.95;;;;;;;19.89;45.77;102283.13;5033591;28;20497;-36
2022/06/14 11:07:27;;;;;;;7.68;2.63;;;;;;;20.19;45.79;102283.41;4994779;28;20081;-36
2022/06/14 11:10:15;;;;;;;5.00;1.80;;;;;;;20.28;45.53;102284.59;4994092;28;20038;-36
2022/06/14 11:13:04;;;;;;;4.20;1.98;;;;;;;20.53;45.09;102272.19;4994529;28;20042;-36
2022/06/14 11:15:42;;;;;;;5.40;1.73;;;;;;;20.51;44.81;102255.97;4993947;28;20506;-36
2022/06/14 11:18:31;;;;;;;4.68;1.83;;;;;;;20.81;46.13;102271.84;4994299;28;20058;-36
2022/06/14 11:21:25;;;;;;;5.40;2.00;;;;;;;20.05;44.18;102272.03;4994305;28;20042;-36
2022/06/14 11:24:25;;;;;;;7.80;1.80;;;;;;;20.60;43.97;102266.50;4994603;28;20077;-36
2022/06/14 11:27:09;;;;;;;5.45;1.75;;;;;;;20.78;43.33;102255.88;4993859;28;20173;-36
2022/06/14 11:29:49;;;;;;;5.05;1.88;;;;;;;20.81;42.83;102254.53;4993916;28;20044;-36
2022/06/14 11:32:39;;;;;;;8.65;2.08;;;;;;;21.06;44.55;102234.59;4993828;28;20573;-37
2022/06/14 11:35:22;;;;;;;3.80;1.67;;;;;;;20.77;42.13;102245.97;4993903;28;20030;-36
2022/06/14 11:38:09;;;;;;;5.10;1.80;;;;;;;21.21;42.87;102245.66;4993634;28;20030;-36
2022/06/14 11:40:41;;;;;;;3.50;1.58;;;;;;;21.44;42.64;102238.91;4993875;28;20030;-37
2022/06/14 11:43:32;;;;;;;3.55;1.48;;;;;;;21.54;42.57;102238.09;5039036;28;20438;-37
2022/06/14 11:46:26;;;;;;;4.05;1.45;;;;;;;21.77;41.34;102234.88;5055831;28;20025;-36
2022/06/14 11:49:15;;;;;;;5.20;1.67;;;;;;;22.05;39.33;102227.97;5054918;28;20025;-36
2022/06/14 11:52:05;;;;;;;3.35;1.48;;;;;;;22.00;40.33;102227.16;5051701;28;20041;-36
2022/06/14 11:54:49;;;;;;;5.85;1.30;;;;;;;21.98;43.31;102232.13;5055232;28;20037;-36
2022/06/14 11:57:26;;;;;;;4.65;1.70;;;;;;;21.90;40.52;102229.91;5054825;28;20052;-37
2022/06/14 12:00:23;;;;;;;4.10;1.67;;;;;;;21.88;39.84;102230.19;5055579;28;20048;-37
2022/06/14 12:03:01;;;;;;;4.78;1.80;;;;;;;21.54;38.75;102227.94;5055026;28;20107;-37
2022/06/14 12:06:08;;;;;;;6.13;1.77;;;;;;;21.17;39.82;102211.53;5054611;28;20087;-37
2022/06/14 12:08:44;;;;;;;3.95;1.27;;;;;;;21.40;40.08;102225.97;5054825;28;20048;-37
2022/06/14 12:11:18;;;;;;;2.63;1.40;;;;;;;21.73;39.12;102217.22;5054643;28;20031;-36
2022/06/14 12:14:06;;;;;;;5.22;1.77;;;;;;;21.77;41.67;102221.09;5055119;28;20424;-37
2022/06/14 12:16:37;;;;;;;5.53;1.77;;;;;;;21.99;41.45;102222.75;5055010;28;20118;-36
2022/06/14 12:19:11;;;;;;;5.30;2.00;;;;;;;21.80;42.04;102220.53;5054589;28;20079;-36
2022/06/14 12:21:48;;;;;;;3.50;1.50;;;;;;;21.94;41.58;102229.09;5055502;28;20029;-37
2022/06/14 12:24:19;;;;;;;4.53;1.80;;;;;;;21.91;38.90;102220.53;5054422;28;20045;-36
2022/06/14 12:26:59;;;;;;;7.28;1.60;;;;;;;22.20;39.99;102218.94;5054623;28;20120;-36
2022/06/14 12:29:33;;;;;;;6.18;1.85;;;;;;;22.09;39.77;102211.75;5054497;28;20491;-37
2022/06/14 12:32:16;;;;;;;6.45;1.83;;;;;;;22.35;43.07;102199.66;5054314;28;20032;-37